Weather observations for the past three days for
VC Bird International Airport
| Date | Time (ast) | Wind (kph) | Vis. (km) | Weather | Sky Cond. | Temperature (ºC) | Relative Humidity | Wind Chill (°C) | Heat Index (°C) | Pressure | Precipitation (cm) | ||||||
|---|---|---|---|---|---|---|---|---|---|---|---|---|---|---|---|---|---|
| Air | Dwpt | 6 hour | altimeter (cm) | sea level (mb) | 1 hr | 3 hr | 6 hr | ||||||||||
| Max. | Min. | ||||||||||||||||
| 02 | 03:00 | E 11 | 0.00 | Partly Cloudy | SCT018 | 26 | 23 | 84% | 28 | 0 | 0.0 | ||||||
| 02 | 02:00 | E 11 | 0.00 | A Few Clouds | FEW018 | 26 | 23 | 84% | 28 | 0 | 0.0 | ||||||
| 02 | 01:00 | E 13 | 0.00 | Partly Cloudy | SCT018 | 25 | 22 | 83% | 26 | 0 | 0.0 | ||||||
| 02 | 00:00 | E 13 | 0.00 | Showers in Vicinity | SCT018 | 25 | 22 | 83% | 26 | 0 | 0.0 | ||||||
| 01 | 23:00 | E 11 | 0.00 | Showers in Vicinity | SCT018 | 27 | 23 | 79% | 30 | 0 | 0.0 | ||||||
| 01 | 22:00 | E 13 | 0.00 | Partly Cloudy | SCT018 | 27 | 23 | 79% | 30 | 0 | 0.0 | ||||||
| 01 | 21:00 | E 15 | 0.00 | Partly Cloudy | SCT019 | 27 | 23 | 79% | 30 | 0 | 0.0 | ||||||
| 01 | 20:00 | E 13 | 0.00 | A Few Clouds | FEW020 | 27 | 23 | 79% | 30 | 0 | 0.0 | ||||||
| 01 | 19:00 | E 13 | 0.00 | A Few Clouds | FEW020 | 27 | 23 | 79% | 30 | 0 | 0.0 | ||||||
| 01 | 18:00 | E 15 | 0.00 | A Few Clouds | FEW018 | 28 | 23 | 74% | 31 | 0 | 0.0 | ||||||
| 01 | 17:00 | E 19 | 0.00 | Mostly Cloudy | BKN018 | 29 | 24 | 74% | 34 | 0 | 0.0 | ||||||
| 01 | 16:00 | E 19 | 0.00 | Partly Cloudy | SCT018 | 30 | 24 | 70% | 35 | 0 | 0.0 | ||||||
| 01 | 15:00 | E 22 | 0.00 | Partly Cloudy | SCT018 | 31 | 24 | 66% | 37 | 0 | 0.0 | ||||||
| 01 | 14:00 | E 19 | 0.00 | Partly Cloudy | SCT019 | 31 | 24 | 66% | 37 | 0 | 0.0 | ||||||
| 01 | 13:00 | E 20 | 0.00 | Partly Cloudy | SCT018 | 31 | 24 | 66% | 37 | 0 | 0.0 | ||||||
| 01 | 12:00 | E 19 | 0.00 | Showers in Vicinity | FEW017CB | 31 | 24 | 66% | 37 | 0 | 0.0 | ||||||
| 01 | 11:00 | E 20 | 0.00 | Showers in Vicinity | FEW017TCU SCT018 | 31 | 24 | 66% | 37 | 0 | 0.0 | ||||||
| 01 | 10:00 | E 24 | 0.00 | Partly Cloudy | SCT018 | 30 | 24 | 70% | 35 | 0 | 0.0 | ||||||
| 01 | 09:00 | E 19 | 0.00 | Partly Cloudy | SCT018 | 30 | 24 | 70% | 35 | 0 | 0.0 | ||||||
| 01 | 08:00 | E 15 | 0.00 | Partly Cloudy | FEW018TCU SCT020 | 29 | 24 | 74% | 34 | 0 | 0.0 | ||||||
| 01 | 07:00 | E 17 | 0.00 | Partly Cloudy | SCT018 | 27 | 23 | 79% | 30 | 0 | 0.0 | ||||||
| 01 | 06:00 | E 15 | 0.00 | Partly Cloudy | SCT018 | 27 | 23 | 79% | 30 | 0 | 0.0 | ||||||
| 01 | 05:00 | E 13 | 0.00 | Partly Cloudy | SCT018 | 26 | 23 | 84% | 28 | 0 | 0.0 | ||||||
| 01 | 04:00 | E 11 | 0.00 | A Few Clouds | FEW019 | 26 | 23 | 84% | 28 | 0 | 0.0 | ||||||
| 01 | 03:00 | E 13 | 0.00 | A Few Clouds | FEW018 | 26 | 23 | 84% | 28 | 0 | 0.0 | ||||||
| 01 | 02:00 | E 15 | 0.00 | Partly Cloudy | FEW019 SCT038 | 27 | 23 | 79% | 30 | 0 | 0.0 | ||||||
| 01 | 01:00 | E 17 | 0.00 | Partly Cloudy | FEW018 SCT038 | 27 | 23 | 79% | 30 | 0 | 0.0 | ||||||
| 01 | 00:00 | E 13 | 0.00 | Mostly Cloudy | FEW018 BKN038 | 27 | 23 | 79% | 30 | 0 | 0.0 | ||||||
| 31 | 23:00 | E 13 | 0.00 | Mostly Cloudy | FEW018 BKN037 | 27 | 23 | 79% | 30 | 0 | 0.0 | ||||||
| 31 | 22:00 | E 15 | 0.00 | Partly Cloudy | FEW018 SCT037 | 27 | 23 | 79% | 30 | 0 | 0.0 | ||||||
| 31 | 21:00 | E 15 | 0.00 | Partly Cloudy | FEW018 SCT037 | 27 | 23 | 79% | 30 | 0 | 0.0 | ||||||
| 31 | 20:00 | E 15 | 0.00 | Partly Cloudy | SCT018 SCT038 | 27 | 24 | 84% | 30 | 0 | 0.0 | ||||||
| 31 | 19:00 | E 19 | 0.00 | Mostly Cloudy | FEW018 BKN038 | 27 | 23 | 79% | 30 | 0 | 0.0 | ||||||
| 31 | 18:00 | E 20 | 0.00 | Partly Cloudy | SCT018 SCT038 | 27 | 24 | 84% | 30 | 0 | 0.0 | ||||||
| 31 | 17:00 | E 19 | 0.00 | Partly Cloudy | SCT018 SCT038 | 28 | 24 | 79% | 32 | 0 | 0.0 | ||||||
| 31 | 16:00 | E 17 | 0.00 | Showers in Vicinity | SCT018 BKN038 | 29 | 25 | 79% | 35 | 0 | 0.0 | ||||||
| 31 | 15:00 | E 15 | 0.00 | Mostly Cloudy | SCT018 BKN037 | 29 | 24 | 74% | 34 | 0 | 0.0 | ||||||
| 31 | 14:00 | E 19 | 0.00 | Mostly Cloudy | FEW018 BKN037 | 29 | 24 | 74% | 34 | 0 | 0.0 | ||||||
| 31 | 13:00 | E 19 | 0.00 | Mostly Cloudy | FEW018 BKN036 | 30 | 24 | 70% | 35 | 0 | 0.0 | ||||||
| 31 | 12:00 | E 20 | 0.00 | Showers in Vicinity | FEW016 BKN038 | 29 | 25 | 79% | 35 | 0 | 0.0 | ||||||
| 31 | 11:00 | E 19 | 0.00 | Showers in Vicinity | FEW016 BKN038 | 29 | 24 | 74% | 34 | 0 | 0.0 | ||||||
| 31 | 10:00 | E 19 | 0.00 | Mostly Cloudy | FEW016 BKN036 | 28 | 24 | 79% | 32 | 0 | 0.0 | ||||||
| 31 | 09:00 | E 17 | 0.00 | Light Rain | BKN015 BKN036 | 27 | 24 | 84% | 30 | 0 | 0.0 | ||||||
| 31 | 08:00 | E 17 | 0.00 | Showers Rain | SCT015 BKN036 | 25 | 24 | 94% | 26 | 0 | 0.0 | ||||||
| 31 | 07:00 | E 11 | 0.00 | Light Showers Rain | FEW013 SCT015 BKN036 | 25 | 23 | 89% | 26 | 0 | 0.0 | ||||||
| 31 | 06:00 | E 11 | 0.00 | Showers in Vicinity | SCT018 BKN036 | 26 | 23 | 84% | 28 | 0 | 0.0 | ||||||
| 31 | 05:00 | E 11 | 0.00 | Mostly Cloudy | SCT018 BKN036 | 26 | 23 | 84% | 28 | 0 | 0.0 | ||||||
| 31 | 04:00 | E 15 | 0.00 | Showers in Vicinity | SCT018 BKN036 | 26 | 23 | 84% | 28 | 0 | 0.0 | ||||||
| 31 | 03:00 | E 9 | 0.00 | Showers in Vicinity | SCT018 BKN034 | 25 | 23 | 89% | 26 | 0 | 0.0 | ||||||
| 31 | 02:00 | E 6 | 0.00 | Light Rain | FEW018 BKN034 | 24 | 22 | 89% | 24 | 0 | 0.0 | ||||||
| 31 | 01:00 | E 7 | 0.00 | Light Rain | FEW018 BKN034 | 24 | 22 | 89% | 24 | 0 | 0.0 | ||||||
| 30 | 23:00 | E 7 | 0.00 | Light Rain | FEW017 BKN034 | 23 | 21 | 89% | 0 | 0.0 | |||||||
| 30 | 22:00 | SE 11 | 0.00 | Light Rain | FEW017 BKN034 | 22 | 21 | 94% | 0 | 0.0 | |||||||
| 30 | 21:00 | SE 11 | 0.00 | Light Rain | FEW017 BKN034 | 23 | 22 | 94% | 0 | 0.0 | |||||||
| 30 | 20:00 | SE 13 | 0.00 | Light Rain | FEW016CB BKN034 | 23 | 21 | 89% | 0 | 0.0 | |||||||
| 30 | 19:00 | SE 19 | 0.00 | Light Rain Showers Rain | FEW016CB BKN034 | 24 | 22 | 89% | 24 | 0 | 0.0 | ||||||
| 30 | 18:00 | E 30 | 0.00 | Light Showers Rain | BKN015 BKN035 | 25 | 22 | 83% | 26 | 0 | 0.0 | ||||||
| 30 | 17:00 | E 20 | 0.00 | Showers in Vicinity Heavy Showers Rain | SCT015TCU BKN036 SCT012CB | 26 | 23 | 84% | 28 | 0 | 0.0 | ||||||
| 30 | 16:00 | SE 13 | 0.00 | Mostly Cloudy | SCT017 BKN036 | 27 | 23 | 79% | 30 | 0 | 0.0 | ||||||
| 30 | 15:00 | E 17 | 0.00 | Mostly Cloudy | FEW017TCU BKN036 | 28 | 22 | 70% | 31 | 0 | 0.0 | ||||||
| 30 | 14:00 | SE 17 G 35 | 0.00 | Showers in Vicinity | SCT017 SCT036 | 29 | 24 | 74% | 34 | 0 | 0.0 | ||||||
| 30 | 13:00 | SE 17 | 0.00 | Mostly Cloudy | FEW016TCU BKN036 | 30 | 24 | 70% | 35 | 0 | 0.0 | ||||||
| 30 | 12:00 | SE 15 | 0.00 | Mostly Cloudy | SCT017 BKN036 | 29 | 23 | 70% | 33 | 0 | 0.0 | ||||||
| 30 | 11:00 | E 11 | 0.00 | Mostly Cloudy | FEW017 BKN036 | 28 | 23 | 74% | 31 | 0 | 0.0 | ||||||
| 30 | 10:00 | S 6 | 0.00 | Mostly Cloudy | SCT016 BKN036 | 26 | 22 | 79% | 28 | 0 | 0.0 | ||||||
| 30 | 09:00 | S 24 G 48 | 0.00 | Light Rain | SCT015 BKN034 | 24 | 22 | 89% | 24 | 0 | 0.0 | ||||||
| 30 | 08:00 | S 17 | 0.00 | Light Showers Rain | SCT016 BKN034 | 24 | 23 | 94% | 23 | 0 | 0.0 | ||||||
| 30 | 07:35 | S 11 | 0.00 | Light Showers Rain Thunderstorm Rain | SCT015CB SCT034 | 24 | 22 | 89% | 24 | 0 | 0.0 | ||||||
| 30 | 07:00 | S 20 | 0.00 | Thunderstorm Light Rain | BKN015CB SCT034 | 22 | 21 | 94% | 0 | 0.0 | |||||||
| 30 | 06:00 | SE 26 G 50 | 0.00 | Thunderstorm Heavy Rain | BKN016CB | 22 | 20 | 88% | 0 | 0.0 | |||||||
| 30 | 05:43 | E 31 G 59 | 0.00 | Thunderstorm Heavy Rain | BKN016CB | 25 | 24 | 94% | 26 | 0 | 0.0 | ||||||
| 30 | 05:33 | E 41 G 61 | 0.00 | Thunderstorm Rain Thunderstorm Heavy Rain and Breezy | BKN016CB | 25 | 24 | 94% | 26 | 0 | 0.0 | ||||||
| 30 | 05:00 | E 11 | 0.00 | Showers in Vicinity Thunderstorm in Vicinity Thunderstorm Rain | BKN016CB SCT018 BKN034 | 25 | 24 | 94% | 26 | 0 | 0.0 | ||||||
| 30 | 04:00 | SE 7 | 0.00 | Thunderstorm in Vicinity | SCT016CB BKN034 | 25 | 24 | 94% | 26 | 0 | 0.0 | ||||||
| Date | Time (ast) | Wind (kph) | Vis. (km) | Weather | Sky Cond. | Air | Dwpt | Max. | Min. | Relative Humidity | Wind Chill (°C) | Heat Index (°C) | altimeter (cm) | sea level (mb) | 1 hr | 3 hr | 6 hr |
| 6 hour | |||||||||||||||||
| Temperature (ºC) | Pressure | Precipitation (cm) | |||||||||||||||